createdAt,value
2017-09-26T00:00:01.990Z,15.0
2017-09-26T00:01:03.382Z,15.0
2017-09-26T00:02:04.771Z,15.0
2017-09-26T00:03:06.161Z,15.0
2017-09-26T00:04:07.553Z,14.9
2017-09-26T00:05:08.941Z,14.9
2017-09-26T00:06:10.329Z,14.9
2017-09-26T00:07:11.719Z,14.9
2017-09-26T00:08:13.109Z,15.0
2017-09-26T00:09:14.511Z,14.9
2017-09-26T00:10:15.900Z,14.9
2017-09-26T00:11:17.292Z,14.9
2017-09-26T00:12:18.680Z,14.9
2017-09-26T00:13:20.068Z,14.8
2017-09-26T00:14:21.460Z,14.8
2017-09-26T00:15:22.849Z,14.8
2017-09-26T00:16:24.241Z,14.9
2017-09-26T00:17:25.633Z,14.9
2017-09-26T00:18:27.022Z,14.9
2017-09-26T00:19:28.411Z,14.9
2017-09-26T00:20:29.801Z,14.9
2017-09-26T00:21:31.192Z,14.9
2017-09-26T00:22:32.584Z,14.9
2017-09-26T00:23:33.976Z,15.0
2017-09-26T00:24:35.366Z,15.0
2017-09-26T00:25:36.759Z,15.0
2017-09-26T00:26:38.148Z,15.0
2017-09-26T00:27:39.541Z,15.0
2017-09-26T00:28:40.930Z,15.0
2017-09-26T00:29:42.322Z,15.0
2017-09-26T00:30:43.717Z,15.0
2017-09-26T00:31:45.108Z,15.0
2017-09-26T00:32:46.499Z,15.0
2017-09-26T00:33:47.889Z,15.0
2017-09-26T00:34:49.279Z,15.1
2017-09-26T00:35:50.671Z,15.0
2017-09-26T00:36:52.061Z,15.0
2017-09-26T00:37:53.511Z,15.0
2017-09-26T00:38:54.909Z,15.1
2017-09-26T00:39:56.302Z,15.1
2017-09-26T00:40:57.691Z,15.1
2017-09-26T00:41:59.078Z,15.1
2017-09-26T00:43:00.470Z,15.1
2017-09-26T00:44:01.861Z,15.0
2017-09-26T00:45:03.251Z,15.0
2017-09-26T00:46:04.641Z,15.1
2017-09-26T00:47:06.033Z,15.1
2017-09-26T00:48:07.424Z,15.1
2017-09-26T00:49:08.809Z,15.1
2017-09-26T00:50:10.200Z,15.1
2017-09-26T00:51:11.590Z,15.1
2017-09-26T00:52:12.980Z,15.1
2017-09-26T00:53:14.372Z,15.1
2017-09-26T00:54:15.763Z,15.1
2017-09-26T00:55:17.152Z,15.0
2017-09-26T00:56:18.542Z,15.1
2017-09-26T00:57:19.926Z,15.1
2017-09-26T00:58:21.317Z,15.0
2017-09-26T00:59:22.707Z,15.1
2017-09-26T01:00:24.100Z,15.0
2017-09-26T01:01:25.490Z,15.0
2017-09-26T01:02:26.879Z,15.0
2017-09-26T01:03:28.264Z,15.0
2017-09-26T01:04:29.654Z,15.0
2017-09-26T01:05:31.045Z,15.0
2017-09-26T01:06:32.437Z,15.1
2017-09-26T01:07:33.827Z,14.9
2017-09-26T01:08:35.221Z,15.0
2017-09-26T01:09:36.606Z,15.0
2017-09-26T01:10:37.999Z,15.0
2017-09-26T01:11:39.391Z,15.0
2017-09-26T01:12:40.782Z,15.0
2017-09-26T01:13:42.172Z,15.0
2017-09-26T01:14:43.568Z,14.9
2017-09-26T01:15:44.954Z,15.0
2017-09-26T01:16:46.341Z,14.9
2017-09-26T01:17:47.731Z,15.0
2017-09-26T01:18:49.115Z,14.9
2017-09-26T01:19:50.507Z,14.9
2017-09-26T01:20:51.897Z,15.0
2017-09-26T01:21:53.289Z,15.0
2017-09-26T01:22:54.682Z,14.9
2017-09-26T01:23:56.071Z,15.0
2017-09-26T01:24:57.458Z,15.0
2017-09-26T01:25:58.847Z,15.1
2017-09-26T01:27:00.239Z,15.0
2017-09-26T01:28:01.630Z,15.0
2017-09-26T01:29:03.024Z,14.9
2017-09-26T01:30:04.410Z,15.0
2017-09-26T01:31:05.800Z,15.0
2017-09-26T01:32:07.188Z,15.0
2017-09-26T01:33:08.578Z,15.0
2017-09-26T01:34:09.966Z,14.9
2017-09-26T01:35:11.361Z,15.0
2017-09-26T01:36:12.756Z,15.0
2017-09-26T01:37:14.146Z,14.9
2017-09-26T01:38:15.536Z,14.9
2017-09-26T01:39:16.925Z,14.9
2017-09-26T01:40:18.313Z,14.9
2017-09-26T01:41:19.702Z,14.8
2017-09-26T01:42:21.095Z,14.9
2017-09-26T01:43:22.485Z,14.8
2017-09-26T01:44:23.877Z,14.9
2017-09-26T01:45:25.265Z,14.8
2017-09-26T01:46:26.655Z,14.8
2017-09-26T01:47:28.043Z,14.8
2017-09-26T01:48:29.434Z,14.9
2017-09-26T01:49:30.825Z,14.8
2017-09-26T01:50:32.216Z,14.8
2017-09-26T01:51:33.609Z,14.8
2017-09-26T01:52:34.995Z,14.8
2017-09-26T01:53:36.384Z,14.8
2017-09-26T01:54:37.773Z,14.8
2017-09-26T01:55:39.162Z,14.8
2017-09-26T01:56:40.553Z,14.8
2017-09-26T01:57:41.944Z,14.7
2017-09-26T01:58:43.336Z,14.7
2017-09-26T01:59:44.726Z,14.7
2017-09-26T02:00:46.109Z,14.8
2017-09-26T02:01:47.499Z,14.6
2017-09-26T02:02:48.890Z,14.7
2017-09-26T02:03:50.282Z,14.7
2017-09-26T02:04:51.675Z,14.7
2017-09-26T02:05:53.065Z,14.7
2017-09-26T02:06:54.456Z,14.7
2017-09-26T02:07:55.843Z,14.8
2017-09-26T02:08:57.233Z,14.8
2017-09-26T02:09:58.623Z,14.7
2017-09-26T02:11:00.010Z,14.8
2017-09-26T02:12:01.402Z,14.8
2017-09-26T02:13:02.792Z,14.8
2017-09-26T02:14:04.180Z,14.8
2017-09-26T02:15:05.570Z,14.8
2017-09-26T02:16:06.961Z,14.8
2017-09-26T02:17:08.404Z,14.8
2017-09-26T02:18:09.796Z,14.9
2017-09-26T02:19:11.187Z,14.8
2017-09-26T02:20:12.580Z,14.8
2017-09-26T02:21:13.967Z,14.9
2017-09-26T02:22:15.356Z,14.8
2017-09-26T02:23:16.744Z,14.8
2017-09-26T02:24:18.137Z,14.8
2017-09-26T02:25:19.524Z,14.8
2017-09-26T02:26:20.917Z,14.8
2017-09-26T02:27:22.308Z,14.8
2017-09-26T02:28:23.694Z,14.8
2017-09-26T02:29:25.083Z,14.8
2017-09-26T02:30:26.471Z,14.8
2017-09-26T02:31:27.861Z,14.8
2017-09-26T02:32:29.252Z,14.8
2017-09-26T02:33:30.648Z,14.9
2017-09-26T02:34:32.038Z,14.8
2017-09-26T02:35:33.422Z,14.8
2017-09-26T02:36:34.816Z,14.9
2017-09-26T02:37:36.202Z,14.9
2017-09-26T02:38:37.598Z,14.8
2017-09-26T02:39:38.982Z,14.8
2017-09-26T02:40:40.372Z,14.8
2017-09-26T02:41:41.763Z,14.9
2017-09-26T02:42:43.150Z,14.8
2017-09-26T02:43:44.541Z,14.8
2017-09-26T02:44:45.930Z,14.8
2017-09-26T02:45:47.320Z,14.9
2017-09-26T02:46:48.709Z,14.8
2017-09-26T02:47:50.100Z,14.7
2017-09-26T02:48:51.490Z,14.8
2017-09-26T02:49:52.879Z,14.8
2017-09-26T02:50:54.268Z,14.9
2017-09-26T02:51:55.658Z,14.8
2017-09-26T02:52:57.047Z,14.8
2017-09-26T02:53:58.439Z,14.8
2017-09-26T02:54:59.830Z,14.7
2017-09-26T02:56:01.229Z,14.7
2017-09-26T02:57:02.616Z,14.8
2017-09-26T02:58:04.008Z,14.8
2017-09-26T02:59:05.394Z,14.7
2017-09-26T03:00:06.786Z,14.8
2017-09-26T03:01:08.176Z,14.7
2017-09-26T03:02:09.566Z,14.7
2017-09-26T03:03:10.958Z,14.7
2017-09-26T03:04:12.346Z,14.7
2017-09-26T03:05:13.739Z,14.7
2017-09-26T03:06:15.127Z,14.7
2017-09-26T03:07:16.518Z,14.8
2017-09-26T03:08:17.953Z,14.7
2017-09-26T03:09:19.344Z,14.7
2017-09-26T03:10:20.736Z,14.6
2017-09-26T03:11:22.125Z,14.6
2017-09-26T03:12:23.515Z,14.6
2017-09-26T03:13:24.910Z,14.5
2017-09-26T03:14:26.295Z,14.6
2017-09-26T03:15:27.685Z,14.5
2017-09-26T03:16:29.074Z,14.5
2017-09-26T03:17:30.467Z,14.5
2017-09-26T03:18:31.855Z,14.4
2017-09-26T03:19:33.244Z,14.5
2017-09-26T03:20:34.632Z,14.4
2017-09-26T03:21:36.020Z,14.4
2017-09-26T03:22:37.412Z,14.4
2017-09-26T03:23:38.807Z,14.3
2017-09-26T03:24:40.195Z,14.4
2017-09-26T03:25:41.585Z,14.4
2017-09-26T03:26:42.975Z,14.4
2017-09-26T03:27:44.366Z,14.3
2017-09-26T03:28:45.757Z,14.3
2017-09-26T03:29:47.145Z,14.3
2017-09-26T03:30:48.537Z,14.3
2017-09-26T03:31:49.925Z,14.2
2017-09-26T03:32:51.315Z,14.3
2017-09-26T03:33:52.705Z,14.3
2017-09-26T03:34:54.095Z,14.3
2017-09-26T03:35:55.486Z,14.3
2017-09-26T03:36:56.877Z,14.3
2017-09-26T03:37:58.268Z,14.3
2017-09-26T03:38:59.658Z,14.3
2017-09-26T03:40:01.048Z,14.2
2017-09-26T03:41:02.438Z,14.2
2017-09-26T03:42:03.823Z,14.1
2017-09-26T03:43:05.214Z,14.1
2017-09-26T03:44:06.605Z,14.2
2017-09-26T03:45:07.995Z,14.1
2017-09-26T03:46:09.384Z,14.2
2017-09-26T03:47:10.778Z,14.2
2017-09-26T03:48:12.167Z,14.2
2017-09-26T03:49:13.556Z,14.2
2017-09-26T03:50:14.947Z,14.2
2017-09-26T03:51:16.336Z,14.2
2017-09-26T03:52:17.724Z,14.1
2017-09-26T03:53:19.116Z,14.1
2017-09-26T03:54:20.502Z,14.0
2017-09-26T03:55:21.890Z,14.1
2017-09-26T03:56:23.327Z,14.1
2017-09-26T03:57:24.717Z,14.0
2017-09-26T03:58:26.106Z,14.1
2017-09-26T03:59:27.500Z,14.1
2017-09-26T04:00:28.886Z,14.0
2017-09-26T04:01:30.272Z,14.1
2017-09-26T04:02:31.660Z,14.0
2017-09-26T04:03:33.045Z,14.0
2017-09-26T04:04:34.439Z,14.1
2017-09-26T04:05:35.826Z,14.0
2017-09-26T04:06:37.229Z,14.0
2017-09-26T04:07:38.609Z,14.0
2017-09-26T04:08:40.002Z,14.1
2017-09-26T04:09:41.388Z,14.1
2017-09-26T04:10:42.775Z,14.1
2017-09-26T04:11:44.166Z,14.2
2017-09-26T04:12:45.557Z,14.2
2017-09-26T04:13:46.947Z,14.1
2017-09-26T04:14:48.303Z,14.1
2017-09-26T04:15:49.693Z,14.1
2017-09-26T04:16:51.079Z,14.2
2017-09-26T04:17:52.469Z,14.1
2017-09-26T04:18:53.859Z,14.2
2017-09-26T04:19:55.249Z,14.1
2017-09-26T04:20:56.638Z,14.2
2017-09-26T04:21:58.027Z,14.2
2017-09-26T04:22:59.418Z,14.2
2017-09-26T04:24:00.807Z,14.1
2017-09-26T04:25:02.198Z,14.2
2017-09-26T04:26:03.700Z,14.1
2017-09-26T04:27:05.084Z,14.1
2017-09-26T04:28:06.475Z,14.1
2017-09-26T04:29:07.866Z,14.1
2017-09-26T04:30:09.254Z,14.3
2017-09-26T04:31:10.652Z,14.2
2017-09-26T04:32:12.042Z,14.2
2017-09-26T04:33:13.394Z,14.2
2017-09-26T04:34:14.785Z,14.2
2017-09-26T04:35:16.192Z,14.2
2017-09-26T04:36:17.584Z,14.3
2017-09-26T04:37:18.971Z,14.3
2017-09-26T04:38:20.358Z,14.2
2017-09-26T04:39:21.743Z,14.3
2017-09-26T04:40:23.132Z,14.2
2017-09-26T04:41:24.523Z,14.2
2017-09-26T04:42:25.914Z,14.2
2017-09-26T04:43:27.304Z,14.1
2017-09-26T04:44:28.689Z,14.2
2017-09-26T04:45:30.077Z,14.2
2017-09-26T04:46:31.468Z,14.2
2017-09-26T04:47:32.857Z,14.2
2017-09-26T04:48:34.245Z,14.1
2017-09-26T04:49:35.633Z,14.3
2017-09-26T04:50:37.025Z,14.2
2017-09-26T04:51:38.414Z,14.2
2017-09-26T04:52:39.801Z,14.3
2017-09-26T04:53:41.190Z,14.2
2017-09-26T04:54:42.577Z,14.2
2017-09-26T04:55:43.966Z,14.2
2017-09-26T04:56:45.360Z,14.2
2017-09-26T04:57:46.749Z,14.2
2017-09-26T04:58:48.134Z,14.2
2017-09-26T04:59:49.523Z,14.1
2017-09-26T05:00:50.914Z,14.2
2017-09-26T05:01:52.303Z,14.1
2017-09-26T05:02:53.691Z,14.2
2017-09-26T05:03:55.078Z,14.2
2017-09-26T05:04:56.473Z,14.1
2017-09-26T05:05:57.859Z,14.0
2017-09-26T05:06:59.248Z,14.1
2017-09-26T05:08:00.641Z,14.1
2017-09-26T05:09:02.034Z,14.1
2017-09-26T05:10:03.415Z,14.1
2017-09-26T05:11:04.809Z,14.0
2017-09-26T05:12:06.199Z,14.1
2017-09-26T05:13:07.588Z,14.0
2017-09-26T05:14:08.976Z,14.1
2017-09-26T05:15:10.364Z,14.0
2017-09-26T05:16:11.752Z,14.1
2017-09-26T05:17:13.141Z,14.2
2017-09-26T05:18:14.532Z,14.1
2017-09-26T05:19:15.922Z,14.1
2017-09-26T05:20:17.312Z,14.1
2017-09-26T05:21:18.702Z,14.1
2017-09-26T05:22:20.091Z,14.0
2017-09-26T05:23:21.484Z,14.1
2017-09-26T05:24:22.875Z,14.1
2017-09-26T05:25:24.269Z,14.1
2017-09-26T05:26:25.660Z,14.1
2017-09-26T05:27:27.049Z,14.0
2017-09-26T05:28:28.438Z,14.1
2017-09-26T05:29:29.831Z,14.1
2017-09-26T05:30:31.221Z,14.2
2017-09-26T05:31:32.613Z,14.1
2017-09-26T05:32:34.006Z,14.2
2017-09-26T05:33:35.398Z,14.2
2017-09-26T05:34:36.787Z,14.2
2017-09-26T05:35:38.224Z,14.2
2017-09-26T05:36:39.615Z,14.1
2017-09-26T05:37:41.007Z,14.2
2017-09-26T05:38:42.427Z,14.1
2017-09-26T05:39:43.791Z,14.2
2017-09-26T05:40:45.182Z,14.3
2017-09-26T05:41:46.571Z,14.2
2017-09-26T05:42:47.960Z,14.3
2017-09-26T05:43:49.351Z,14.3
2017-09-26T05:44:50.747Z,14.2
2017-09-26T05:45:52.138Z,14.2
2017-09-26T05:46:53.534Z,14.3
2017-09-26T05:47:54.930Z,14.3
2017-09-26T05:48:56.466Z,14.3
2017-09-26T05:49:57.857Z,14.3
2017-09-26T05:50:59.260Z,14.2
2017-09-26T05:52:00.663Z,14.3
2017-09-26T05:53:02.056Z,14.4
2017-09-26T05:54:03.450Z,14.3
2017-09-26T05:55:04.890Z,14.2
2017-09-26T05:56:06.286Z,14.2
2017-09-26T05:57:07.679Z,14.2
2017-09-26T05:58:09.069Z,14.3
2017-09-26T05:59:10.464Z,14.3
2017-09-26T06:00:11.856Z,14.3
2017-09-26T06:01:13.251Z,14.3
2017-09-26T06:02:14.645Z,14.3
2017-09-26T06:03:16.034Z,14.3
2017-09-26T06:04:17.427Z,14.4
2017-09-26T06:05:18.818Z,14.4
2017-09-26T06:06:20.212Z,14.4
2017-09-26T06:07:21.606Z,14.4
2017-09-26T06:08:22.997Z,14.4
2017-09-26T06:09:24.390Z,14.4
2017-09-26T06:10:25.782Z,14.4
2017-09-26T06:11:27.175Z,14.5
2017-09-26T06:12:28.566Z,14.4
2017-09-26T06:13:29.959Z,14.5
2017-09-26T06:14:31.353Z,14.4
2017-09-26T06:15:32.752Z,14.5
2017-09-26T06:16:34.139Z,14.5
2017-09-26T06:17:35.534Z,14.5
2017-09-26T06:18:36.924Z,14.4
2017-09-26T06:19:38.315Z,14.5
2017-09-26T06:20:39.710Z,14.5
2017-09-26T06:21:41.102Z,14.6
2017-09-26T06:22:42.496Z,14.6
2017-09-26T06:23:43.897Z,14.6
2017-09-26T06:24:45.286Z,14.6
2017-09-26T06:25:46.680Z,14.6
2017-09-26T06:26:48.073Z,14.7
2017-09-26T06:27:49.467Z,14.7
2017-09-26T06:28:50.861Z,14.6
2017-09-26T06:29:52.254Z,14.7
2017-09-26T06:30:53.650Z,14.7
2017-09-26T06:31:55.040Z,14.7
2017-09-26T06:32:56.435Z,14.7
2017-09-26T06:33:57.828Z,14.7
2017-09-26T06:34:59.220Z,14.8
2017-09-26T06:36:00.991Z,14.8
2017-09-26T06:37:04.776Z,14.7
2017-09-26T06:38:06.168Z,14.8
2017-09-26T06:39:07.561Z,14.8
2017-09-26T06:40:08.952Z,14.9
2017-09-26T06:41:10.344Z,14.8
2017-09-26T06:42:11.736Z,14.9
2017-09-26T06:43:13.129Z,14.9
2017-09-26T06:44:14.523Z,14.9
2017-09-26T06:45:15.917Z,14.9
2017-09-26T06:46:17.307Z,14.9
2017-09-26T06:47:18.698Z,15.0
2017-09-26T06:48:20.089Z,15.0
2017-09-26T06:49:21.483Z,15.0
2017-09-26T06:50:22.877Z,15.1
2017-09-26T06:51:24.269Z,15.0
2017-09-26T06:52:25.666Z,15.1
2017-09-26T06:53:27.058Z,15.1
2017-09-26T06:54:28.449Z,15.1
2017-09-26T06:55:29.843Z,15.2
2017-09-26T06:56:31.236Z,15.1
2017-09-26T06:57:32.631Z,15.1
2017-09-26T06:58:34.023Z,15.2
2017-09-26T06:59:35.418Z,15.1
2017-09-26T07:00:36.806Z,15.1
2017-09-26T07:01:38.201Z,15.2
2017-09-26T07:02:39.591Z,15.2
2017-09-26T07:03:40.983Z,15.2
2017-09-26T07:04:42.377Z,15.2
2017-09-26T07:05:43.772Z,15.2
2017-09-26T07:06:45.169Z,15.4
2017-09-26T07:07:46.562Z,15.4
2017-09-26T07:08:47.996Z,15.4
2017-09-26T07:09:49.386Z,15.4
2017-09-26T07:10:50.786Z,15.4
2017-09-26T07:11:52.178Z,15.3
2017-09-26T07:12:53.576Z,15.3
2017-09-26T07:13:54.971Z,15.5
2017-09-26T07:14:56.363Z,15.4
2017-09-26T07:15:57.751Z,15.4
2017-09-26T07:16:59.144Z,15.4
2017-09-26T07:18:00.537Z,15.4
2017-09-26T07:19:01.932Z,15.5
2017-09-26T07:20:03.329Z,15.5
2017-09-26T07:21:04.726Z,15.5
2017-09-26T07:22:06.117Z,15.5
2017-09-26T07:23:07.512Z,15.5
2017-09-26T07:24:08.906Z,15.6
2017-09-26T07:25:10.298Z,15.7
2017-09-26T07:26:11.692Z,15.7
2017-09-26T07:27:13.089Z,15.6
2017-09-26T07:28:14.487Z,15.7
2017-09-26T07:29:15.880Z,15.7
2017-09-26T07:30:17.271Z,15.6
2017-09-26T07:31:18.667Z,15.7
2017-09-26T07:32:20.062Z,15.8
2017-09-26T07:33:21.458Z,15.7
2017-09-26T07:34:22.856Z,15.8
2017-09-26T07:35:24.970Z,15.7
2017-09-26T07:36:26.370Z,15.8
2017-09-26T07:37:27.759Z,15.8
2017-09-26T07:38:29.150Z,15.9
2017-09-26T07:39:30.547Z,15.9
2017-09-26T07:40:31.939Z,15.9
2017-09-26T07:41:33.336Z,15.9
2017-09-26T07:42:34.733Z,16.0
2017-09-26T07:43:36.125Z,16.0
2017-09-26T07:44:37.520Z,16.0
2017-09-26T07:45:38.912Z,16.1
2017-09-26T07:46:40.308Z,16.1
2017-09-26T07:47:41.703Z,16.2
2017-09-26T07:48:43.132Z,16.2
2017-09-26T07:49:44.494Z,16.2
2017-09-26T07:50:45.890Z,16.3
2017-09-26T07:51:47.282Z,16.3
2017-09-26T07:52:48.677Z,16.3
2017-09-26T07:53:50.074Z,16.4
2017-09-26T07:54:51.470Z,16.4
2017-09-26T07:55:52.869Z,16.5
2017-09-26T07:56:54.266Z,16.4
2017-09-26T07:57:55.660Z,16.6
2017-09-26T07:58:57.057Z,16.6
2017-09-26T07:59:58.452Z,16.6
2017-09-26T08:00:59.849Z,16.7
2017-09-26T08:02:01.243Z,16.7
2017-09-26T08:03:02.640Z,16.8
2017-09-26T08:04:04.039Z,16.8
2017-09-26T08:05:05.428Z,16.8
2017-09-26T08:06:06.824Z,16.9
2017-09-26T08:07:08.218Z,16.9
2017-09-26T08:08:09.615Z,17.0
2017-09-26T08:09:11.030Z,17.0
2017-09-26T08:10:12.426Z,17.0
2017-09-26T08:11:13.824Z,17.2
2017-09-26T08:12:15.217Z,17.1
2017-09-26T08:13:16.614Z,17.2
2017-09-26T08:14:18.014Z,17.2
2017-09-26T08:15:19.415Z,17.2
2017-09-26T08:16:20.808Z,17.4
2017-09-26T08:17:22.209Z,17.4
2017-09-26T08:18:23.603Z,17.4
2017-09-26T08:19:24.998Z,17.4
2017-09-26T08:20:26.392Z,17.5
2017-09-26T08:21:27.785Z,17.5
2017-09-26T08:22:29.184Z,17.5
2017-09-26T08:23:30.579Z,17.6
2017-09-26T08:24:31.976Z,17.6
2017-09-26T08:25:33.373Z,17.6
2017-09-26T08:26:34.776Z,17.6
2017-09-26T08:27:36.166Z,17.7
2017-09-26T08:28:37.559Z,17.6
2017-09-26T08:29:38.957Z,17.7
2017-09-26T08:30:40.358Z,17.7
2017-09-26T08:31:41.752Z,17.6
2017-09-26T08:32:43.152Z,17.6
2017-09-26T08:33:44.550Z,17.7
2017-09-26T08:34:45.945Z,17.7
2017-09-26T08:35:47.341Z,17.7
2017-09-26T08:36:48.738Z,17.7
2017-09-26T08:37:50.133Z,17.8
2017-09-26T08:38:51.530Z,17.8
2017-09-26T08:39:52.926Z,17.8
2017-09-26T08:40:54.325Z,17.7
2017-09-26T08:41:55.727Z,17.8
2017-09-26T08:42:57.120Z,17.8
2017-09-26T08:43:58.512Z,17.9
2017-09-26T08:44:59.910Z,17.9
2017-09-26T08:46:01.337Z,18.0
2017-09-26T08:47:02.737Z,18.0
2017-09-26T08:48:04.135Z,18.1
2017-09-26T08:49:05.532Z,18.2
2017-09-26T08:50:06.929Z,18.2
2017-09-26T08:51:08.325Z,18.4
2017-09-26T08:52:09.720Z,18.4
2017-09-26T08:53:11.118Z,18.5
2017-09-26T08:54:12.516Z,18.5
2017-09-26T08:55:13.912Z,18.5
2017-09-26T08:56:15.309Z,18.6
2017-09-26T08:57:16.701Z,18.6
2017-09-26T08:58:18.099Z,18.7
2017-09-26T08:59:19.495Z,18.7
2017-09-26T09:00:20.894Z,18.9
2017-09-26T09:01:22.294Z,18.9
2017-09-26T09:02:23.689Z,18.9
2017-09-26T09:03:25.085Z,18.9
2017-09-26T09:04:26.486Z,18.9
2017-09-26T09:05:27.883Z,19.0
2017-09-26T09:06:29.281Z,19.0
2017-09-26T09:07:30.677Z,19.1
2017-09-26T09:08:32.076Z,19.1
2017-09-26T09:09:33.472Z,19.0
2017-09-26T09:10:34.867Z,19.1
2017-09-26T09:11:36.263Z,19.1
2017-09-26T09:12:37.659Z,19.1
2017-09-26T09:13:39.058Z,19.3
2017-09-26T09:14:40.453Z,19.3
2017-09-26T09:15:41.853Z,19.4
2017-09-26T09:16:43.252Z,19.4
2017-09-26T09:17:44.650Z,19.5
2017-09-26T09:18:46.044Z,19.6
2017-09-26T09:19:47.442Z,19.6
2017-09-26T09:20:48.838Z,19.6
2017-09-26T09:21:50.235Z,19.8
2017-09-26T09:22:51.633Z,19.8
2017-09-26T09:23:53.059Z,20.0
2017-09-26T09:24:54.429Z,20.0
2017-09-26T09:25:55.826Z,20.0
2017-09-26T09:26:57.223Z,20.1
2017-09-26T09:27:58.646Z,20.1
2017-09-26T09:29:00.058Z,20.2
2017-09-26T09:30:01.450Z,20.1
2017-09-26T09:31:02.851Z,20.2
2017-09-26T09:32:04.246Z,20.2
2017-09-26T09:33:05.643Z,20.3
2017-09-26T09:34:07.041Z,20.1
2017-09-26T09:35:08.442Z,20.2
2017-09-26T09:36:09.843Z,20.2
2017-09-26T09:37:11.244Z,20.1
2017-09-26T09:38:12.639Z,20.1
2017-09-26T09:39:14.038Z,20.1
2017-09-26T09:40:15.435Z,20.2
2017-09-26T09:41:16.832Z,20.3
2017-09-26T09:42:18.233Z,20.4
2017-09-26T09:43:19.633Z,20.5
2017-09-26T09:44:21.034Z,20.5
2017-09-26T09:45:22.430Z,20.6
2017-09-26T09:46:23.829Z,20.5
2017-09-26T09:47:25.255Z,20.6
2017-09-26T09:48:26.625Z,20.6
2017-09-26T09:49:28.020Z,20.5
2017-09-26T09:50:29.421Z,20.6
2017-09-26T09:51:30.820Z,20.6
2017-09-26T09:52:32.217Z,20.6
2017-09-26T09:53:33.616Z,20.6
2017-09-26T09:54:35.013Z,20.7
2017-09-26T09:55:36.411Z,20.7
2017-09-26T09:56:37.813Z,20.7
2017-09-26T09:57:39.211Z,20.7
2017-09-26T09:58:40.610Z,20.7
2017-09-26T09:59:42.004Z,20.7
2017-09-26T10:00:43.399Z,20.7
2017-09-26T10:01:44.795Z,20.8
2017-09-26T10:02:46.193Z,20.9
2017-09-26T10:03:47.591Z,20.9
2017-09-26T10:04:48.990Z,20.9
2017-09-26T10:05:50.387Z,20.9
2017-09-26T10:06:51.784Z,20.9
2017-09-26T10:07:53.180Z,20.9
2017-09-26T10:08:54.580Z,20.9
2017-09-26T10:09:55.982Z,20.8
2017-09-26T10:10:57.380Z,20.9
2017-09-26T10:11:58.778Z,20.9
2017-09-26T10:13:00.177Z,20.9
2017-09-26T10:14:01.579Z,21.0
2017-09-26T10:15:02.976Z,20.9
2017-09-26T10:16:04.374Z,21.0
2017-09-26T10:17:05.772Z,20.9
2017-09-26T10:18:07.170Z,21.0
2017-09-26T10:19:08.567Z,21.0
2017-09-26T10:20:09.968Z,21.0
2017-09-26T10:21:11.361Z,21.0
2017-09-26T10:22:12.760Z,21.0
2017-09-26T10:23:14.161Z,20.9
2017-09-26T10:24:15.559Z,21.0
2017-09-26T10:25:16.960Z,20.9
2017-09-26T10:26:18.359Z,21.0
2017-09-26T10:27:19.757Z,20.9
2017-09-26T10:28:21.153Z,21.0
2017-09-26T10:29:22.547Z,20.9
2017-09-26T10:30:23.944Z,20.8
2017-09-26T10:31:25.344Z,20.8
2017-09-26T10:32:26.741Z,20.8
2017-09-26T10:33:28.140Z,20.8
2017-09-26T10:34:29.536Z,20.8
2017-09-26T10:35:30.937Z,20.8
2017-09-26T10:36:32.334Z,20.8
2017-09-26T10:37:33.730Z,20.8
2017-09-26T10:38:35.128Z,20.8
2017-09-26T10:39:36.525Z,20.7
2017-09-26T10:40:37.926Z,20.8
2017-09-26T10:41:39.327Z,20.7
2017-09-26T10:42:40.723Z,20.7
2017-09-26T10:43:42.121Z,20.7
2017-09-26T10:44:43.518Z,20.7
2017-09-26T10:45:44.919Z,20.7
2017-09-26T10:46:46.317Z,20.6
2017-09-26T10:47:47.716Z,20.7
2017-09-26T10:48:49.114Z,20.7
2017-09-26T10:49:50.509Z,20.9
2017-09-26T10:50:51.905Z,20.9
2017-09-26T10:51:53.301Z,21.0
2017-09-26T10:52:54.698Z,21.0
2017-09-26T10:53:56.095Z,21.1
2017-09-26T10:54:57.496Z,21.2
2017-09-26T10:55:58.898Z,21.2
2017-09-26T10:57:00.295Z,21.3
2017-09-26T10:58:01.696Z,21.3
2017-09-26T10:59:03.086Z,21.3
2017-09-26T11:00:04.487Z,21.3
2017-09-26T11:01:05.883Z,21.3
2017-09-26T11:02:07.285Z,21.4
2017-09-26T11:03:08.684Z,21.5
2017-09-26T11:04:10.082Z,21.6
2017-09-26T11:05:11.478Z,21.7
2017-09-26T11:06:12.878Z,21.8
2017-09-26T11:07:14.278Z,21.9
2017-09-26T11:08:15.675Z,22.0
2017-09-26T11:09:17.076Z,22.1
2017-09-26T11:10:18.477Z,22.2
2017-09-26T11:11:19.878Z,22.3
2017-09-26T11:12:21.273Z,22.3
2017-09-26T11:13:22.673Z,22.3
2017-09-26T11:14:24.077Z,22.3
2017-09-26T11:15:25.509Z,22.4
2017-09-26T11:16:26.875Z,22.6
2017-09-26T11:17:28.275Z,22.6
2017-09-26T11:18:29.672Z,22.7
2017-09-26T11:19:31.073Z,23.0
2017-09-26T11:20:32.474Z,23.3
2017-09-26T11:21:33.873Z,23.5
2017-09-26T11:22:35.274Z,23.8
2017-09-26T11:23:36.677Z,24.2
2017-09-26T11:24:38.081Z,24.4
2017-09-26T11:25:39.481Z,24.7
2017-09-26T11:26:40.881Z,24.7
2017-09-26T11:27:42.280Z,24.7
2017-09-26T11:28:43.685Z,24.8
2017-09-26T11:29:45.081Z,24.8
2017-09-26T11:30:46.484Z,24.8
2017-09-26T11:31:47.888Z,25.0
2017-09-26T11:32:49.290Z,25.2
2017-09-26T11:33:50.692Z,25.4
2017-09-26T11:34:52.092Z,25.7
2017-09-26T11:35:53.494Z,26.0
2017-09-26T11:36:54.896Z,26.2
2017-09-26T11:37:56.295Z,26.3
2017-09-26T11:38:57.696Z,26.3
2017-09-26T11:39:59.097Z,26.3
2017-09-26T11:41:00.497Z,26.4
2017-09-26T11:42:01.899Z,26.6
2017-09-26T11:43:03.299Z,26.6
2017-09-26T11:44:04.702Z,26.8
2017-09-26T11:45:06.102Z,26.8
2017-09-26T11:46:07.505Z,26.9
2017-09-26T11:47:08.905Z,26.9
2017-09-26T11:48:10.306Z,27.1
2017-09-26T11:49:11.707Z,27.2
2017-09-26T11:50:13.107Z,27.0
2017-09-26T11:51:14.510Z,26.9
2017-09-26T11:52:15.913Z,27.0
2017-09-26T11:53:17.315Z,27.2
2017-09-26T11:54:18.716Z,27.4
2017-09-26T11:55:20.119Z,27.2
2017-09-26T11:56:21.522Z,27.2
2017-09-26T11:57:22.921Z,27.1
2017-09-26T11:58:24.325Z,27.2
2017-09-26T11:59:25.728Z,27.3
2017-09-26T12:00:27.135Z,27.2
2017-09-26T12:01:28.532Z,27.2
2017-09-26T12:02:29.977Z,27.1
2017-09-26T12:03:31.377Z,26.9
2017-09-26T12:04:32.786Z,26.9
2017-09-26T12:05:34.181Z,27.0
2017-09-26T12:06:35.583Z,26.9
2017-09-26T12:07:36.990Z,26.8
2017-09-26T12:08:38.390Z,26.9
2017-09-26T12:09:39.790Z,26.9
2017-09-26T12:10:41.191Z,27.3
2017-09-26T12:11:42.599Z,27.6
2017-09-26T12:12:43.997Z,27.8
2017-09-26T12:13:45.399Z,27.9
2017-09-26T12:14:46.805Z,27.9
2017-09-26T12:15:48.208Z,28.0
2017-09-26T12:16:49.609Z,28.1
2017-09-26T12:17:52.403Z,28.3
2017-09-26T12:18:53.807Z,28.4
2017-09-26T12:19:55.210Z,28.6
2017-09-26T12:20:56.614Z,28.9
2017-09-26T12:21:58.025Z,28.9
2017-09-26T12:22:59.421Z,29.0
2017-09-26T12:24:00.821Z,29.1
2017-09-26T12:25:02.223Z,28.9
2017-09-26T12:26:03.630Z,28.9
2017-09-26T12:27:05.029Z,28.9
2017-09-26T12:28:06.432Z,29.0
2017-09-26T12:29:07.838Z,28.9
2017-09-26T12:30:09.243Z,29.1
2017-09-26T12:31:10.640Z,29.3
2017-09-26T12:32:12.050Z,29.4
2017-09-26T12:33:13.453Z,29.3
2017-09-26T12:34:14.854Z,29.1
2017-09-26T12:35:16.257Z,28.8
2017-09-26T12:36:17.660Z,28.7
2017-09-26T12:37:19.062Z,28.4
2017-09-26T12:38:20.465Z,28.4
2017-09-26T12:39:21.867Z,28.0
2017-09-26T12:40:23.269Z,27.8
2017-09-26T12:41:24.670Z,27.6
2017-09-26T12:42:26.072Z,27.3
2017-09-26T12:43:27.475Z,27.1
2017-09-26T12:44:28.877Z,26.9
2017-09-26T12:45:30.285Z,26.7
2017-09-26T12:46:31.687Z,26.6
2017-09-26T12:47:33.089Z,26.5
2017-09-26T12:48:34.492Z,26.1
2017-09-26T12:49:35.900Z,25.9
2017-09-26T12:50:37.302Z,25.7
2017-09-26T12:51:38.705Z,25.6
2017-09-26T12:52:40.101Z,25.5
2017-09-26T12:53:41.500Z,25.4
2017-09-26T12:54:42.903Z,25.3
2017-09-26T12:55:44.314Z,25.3
2017-09-26T12:56:45.718Z,25.1
2017-09-26T12:57:47.120Z,25.1
2017-09-26T12:58:48.518Z,25.0
2017-09-26T12:59:49.932Z,25.0
2017-09-26T13:00:51.330Z,24.7
2017-09-26T13:01:52.729Z,24.7
2017-09-26T13:02:54.129Z,24.6
2017-09-26T13:03:55.532Z,24.5
2017-09-26T13:04:56.932Z,24.2
2017-09-26T13:05:58.330Z,24.1
2017-09-26T13:06:59.732Z,24.1
2017-09-26T13:08:01.129Z,24.0
2017-09-26T13:09:02.551Z,24.1
2017-09-26T13:10:03.951Z,24.1
2017-09-26T13:11:05.352Z,24.0
2017-09-26T13:12:06.754Z,24.1
2017-09-26T13:13:08.155Z,23.9
2017-09-26T13:14:09.555Z,23.9
2017-09-26T13:15:10.953Z,23.9
2017-09-26T13:16:12.353Z,23.7
2017-09-26T13:17:13.755Z,23.7
2017-09-26T13:18:15.154Z,23.8
2017-09-26T13:19:16.556Z,23.7
2017-09-26T13:20:17.956Z,23.5
2017-09-26T13:21:19.359Z,23.6
2017-09-26T13:22:20.760Z,23.5
2017-09-26T13:23:22.157Z,23.7
2017-09-26T13:24:23.557Z,23.9
2017-09-26T13:25:24.958Z,24.1
2017-09-26T13:26:26.362Z,24.4
2017-09-26T13:27:27.767Z,24.6
2017-09-26T13:28:29.169Z,24.7
2017-09-26T13:29:30.565Z,24.9
2017-09-26T13:30:31.964Z,24.8
2017-09-26T13:31:33.362Z,24.9
2017-09-26T13:32:34.767Z,25.2
2017-09-26T13:33:36.168Z,25.4
2017-09-26T13:34:37.568Z,25.6
2017-09-26T13:35:38.965Z,25.9
2017-09-26T13:36:40.371Z,26.0